sensor_id;sensor_type;location;lat;lon;timestamp;P1;durP1;ratioP1;P2;durP2;ratioP2
7013;SDS011;3547;50.774;12.918;2023-04-20T00:00:05;3.47;;;2.17;;
7013;SDS011;3547;50.774;12.918;2023-04-20T00:02:40;3.50;;;2.40;;
7013;SDS011;3547;50.774;12.918;2023-04-20T00:05:07;2.77;;;1.93;;
7013;SDS011;3547;50.774;12.918;2023-04-20T00:07:34;3.00;;;2.70;;
7013;SDS011;3547;50.774;12.918;2023-04-20T00:10:01;5.47;;;2.50;;
7013;SDS011;3547;50.774;12.918;2023-04-20T00:12:28;3.60;;;3.10;;
7013;SDS011;3547;50.774;12.918;2023-04-20T00:14:56;3.70;;;2.47;;
7013;SDS011;3547;50.774;12.918;2023-04-20T00:17:22;8.23;;;2.80;;
7013;SDS011;3547;50.774;12.918;2023-04-20T00:19:48;3.87;;;2.53;;
7013;SDS011;3547;50.774;12.918;2023-04-20T00:22:15;3.27;;;2.90;;
7013;SDS011;3547;50.774;12.918;2023-04-20T00:24:41;2.93;;;2.60;;
7013;SDS011;3547;50.774;12.918;2023-04-20T00:27:07;4.57;;;2.87;;
7013;SDS011;3547;50.774;12.918;2023-04-20T00:29:36;3.80;;;2.80;;
7013;SDS011;3547;50.774;12.918;2023-04-20T00:32:02;4.00;;;3.10;;
7013;SDS011;3547;50.774;12.918;2023-04-20T00:34:28;3.93;;;3.10;;
7013;SDS011;3547;50.774;12.918;2023-04-20T00:36:54;3.87;;;2.63;;
7013;SDS011;3547;50.774;12.918;2023-04-20T00:39:24;4.37;;;2.90;;
7013;SDS011;3547;50.774;12.918;2023-04-20T00:41:50;4.20;;;3.13;;
7013;SDS011;3547;50.774;12.918;2023-04-20T00:44:18;3.27;;;2.60;;
7013;SDS011;3547;50.774;12.918;2023-04-20T00:46:44;3.43;;;2.90;;
7013;SDS011;3547;50.774;12.918;2023-04-20T00:52:01;3.90;;;2.87;;
7013;SDS011;3547;50.774;12.918;2023-04-20T00:54:27;3.83;;;2.97;;
7013;SDS011;3547;50.774;12.918;2023-04-20T00:56:55;3.17;;;2.87;;
7013;SDS011;3547;50.774;12.918;2023-04-20T00:59:22;4.47;;;3.33;;
7013;SDS011;3547;50.774;12.918;2023-04-20T01:01:52;3.20;;;2.90;;
7013;SDS011;3547;50.774;12.918;2023-04-20T01:04:21;3.67;;;2.73;;
7013;SDS011;3547;50.774;12.918;2023-04-20T01:06:47;3.20;;;2.80;;
7013;SDS011;3547;50.774;12.918;2023-04-20T01:09:13;3.20;;;2.90;;
7013;SDS011;3547;50.774;12.918;2023-04-20T01:11:39;3.40;;;2.77;;
7013;SDS011;3547;50.774;12.918;2023-04-20T01:14:06;3.53;;;2.80;;
7013;SDS011;3547;50.774;12.918;2023-04-20T01:16:32;4.70;;;3.10;;
7013;SDS011;3547;50.774;12.918;2023-04-20T01:19:01;3.67;;;2.97;;
7013;SDS011;3547;50.774;12.918;2023-04-20T01:21:31;3.63;;;2.70;;
7013;SDS011;3547;50.774;12.918;2023-04-20T01:23:57;5.53;;;4.00;;
7013;SDS011;3547;50.774;12.918;2023-04-20T01:26:23;3.17;;;2.77;;
7013;SDS011;3547;50.774;12.918;2023-04-20T01:28:50;3.47;;;2.73;;
7013;SDS011;3547;50.774;12.918;2023-04-20T01:31:17;4.63;;;2.70;;
7013;SDS011;3547;50.774;12.918;2023-04-20T01:33:46;4.60;;;3.00;;
7013;SDS011;3547;50.774;12.918;2023-04-20T01:36:12;4.93;;;2.90;;
7013;SDS011;3547;50.774;12.918;2023-04-20T01:38:39;3.47;;;3.13;;
7013;SDS011;3547;50.774;12.918;2023-04-20T01:41:06;4.77;;;3.33;;
7013;SDS011;3547;50.774;12.918;2023-04-20T01:43:35;5.07;;;3.30;;
7013;SDS011;3547;50.774;12.918;2023-04-20T01:49:25;3.87;;;3.10;;
7013;SDS011;3547;50.774;12.918;2023-04-20T01:51:51;4.87;;;2.80;;
7013;SDS011;3547;50.774;12.918;2023-04-20T01:54:18;6.43;;;3.77;;
7013;SDS011;3547;50.774;12.918;2023-04-20T01:56:44;7.30;;;4.17;;
7013;SDS011;3547;50.774;12.918;2023-04-20T01:59:10;4.83;;;3.60;;
7013;SDS011;3547;50.774;12.918;2023-04-20T02:01:37;5.03;;;3.20;;
7013;SDS011;3547;50.774;12.918;2023-04-20T02:04:03;4.97;;;3.60;;
7013;SDS011;3547;50.774;12.918;2023-04-20T02:06:29;5.43;;;4.37;;
7013;SDS011;3547;50.774;12.918;2023-04-20T02:08:56;3.53;;;3.20;;
7013;SDS011;3547;50.774;12.918;2023-04-20T02:11:22;4.00;;;3.53;;
7013;SDS011;3547;50.774;12.918;2023-04-20T02:13:48;5.23;;;3.80;;
7013;SDS011;3547;50.774;12.918;2023-04-20T02:19:37;3.93;;;2.93;;
7013;SDS011;3547;50.774;12.918;2023-04-20T02:22:03;4.80;;;3.40;;
7013;SDS011;3547;50.774;12.918;2023-04-20T02:24:30;3.20;;;2.90;;
7013;SDS011;3547;50.774;12.918;2023-04-20T02:26:58;3.90;;;3.27;;
7013;SDS011;3547;50.774;12.918;2023-04-20T02:29:25;3.60;;;3.30;;
7013;SDS011;3547;50.774;12.918;2023-04-20T02:31:52;4.03;;;3.60;;
7013;SDS011;3547;50.774;12.918;2023-04-20T02:34:18;4.00;;;3.17;;
7013;SDS011;3547;50.774;12.918;2023-04-20T02:36:44;4.33;;;3.33;;
7013;SDS011;3547;50.774;12.918;2023-04-20T02:39:13;3.93;;;3.07;;
7013;SDS011;3547;50.774;12.918;2023-04-20T02:41:40;3.80;;;3.47;;
7013;SDS011;3547;50.774;12.918;2023-04-20T02:44:06;3.40;;;3.10;;
7013;SDS011;3547;50.774;12.918;2023-04-20T02:46:32;3.57;;;2.87;;
7013;SDS011;3547;50.774;12.918;2023-04-20T02:48:58;4.70;;;3.40;;
7013;SDS011;3547;50.774;12.918;2023-04-20T02:51:25;4.60;;;3.13;;
7013;SDS011;3547;50.774;12.918;2023-04-20T02:53:51;4.47;;;3.40;;
7013;SDS011;3547;50.774;12.918;2023-04-20T02:56:17;5.73;;;3.67;;
7013;SDS011;3547;50.774;12.918;2023-04-20T03:02:06;6.70;;;3.63;;
7013;SDS011;3547;50.774;12.918;2023-04-20T03:04:32;5.00;;;4.07;;
7013;SDS011;3547;50.774;12.918;2023-04-20T03:06:58;5.07;;;3.97;;
7013;SDS011;3547;50.774;12.918;2023-04-20T03:09:25;4.77;;;3.83;;
7013;SDS011;3547;50.774;12.918;2023-04-20T03:11:52;3.70;;;3.37;;
7013;SDS011;3547;50.774;12.918;2023-04-20T03:14:18;5.93;;;4.20;;
7013;SDS011;3547;50.774;12.918;2023-04-20T03:16:50;5.33;;;3.50;;
7013;SDS011;3547;50.774;12.918;2023-04-20T03:19:17;4.40;;;4.00;;
7013;SDS011;3547;50.774;12.918;2023-04-20T03:21:46;5.30;;;3.87;;
7013;SDS011;3547;50.774;12.918;2023-04-20T03:24:12;7.07;;;4.70;;
7013;SDS011;3547;50.774;12.918;2023-04-20T03:26:38;6.87;;;3.93;;
7013;SDS011;3547;50.774;12.918;2023-04-20T03:29:05;5.83;;;4.27;;
7013;SDS011;3547;50.774;12.918;2023-04-20T03:31:31;4.83;;;4.27;;
7013;SDS011;3547;50.774;12.918;2023-04-20T03:33:57;6.50;;;4.53;;
7013;SDS011;3547;50.774;12.918;2023-04-20T03:36:23;6.73;;;5.00;;
7013;SDS011;3547;50.774;12.918;2023-04-20T03:38:49;6.43;;;4.93;;
7013;SDS011;3547;50.774;12.918;2023-04-20T03:41:15;5.27;;;4.33;;
7013;SDS011;3547;50.774;12.918;2023-04-20T03:43:41;6.60;;;4.67;;
7013;SDS011;3547;50.774;12.918;2023-04-20T03:46:07;6.33;;;4.57;;
7013;SDS011;3547;50.774;12.918;2023-04-20T03:48:34;5.43;;;4.43;;
7013;SDS011;3547;50.774;12.918;2023-04-20T03:51:00;6.17;;;4.47;;
7013;SDS011;3547;50.774;12.918;2023-04-20T03:53:26;4.97;;;4.03;;
7013;SDS011;3547;50.774;12.918;2023-04-20T03:55:53;5.80;;;3.90;;
7013;SDS011;3547;50.774;12.918;2023-04-20T03:58:20;5.60;;;4.53;;
7013;SDS011;3547;50.774;12.918;2023-04-20T04:00:46;4.87;;;4.13;;
7013;SDS011;3547;50.774;12.918;2023-04-20T04:03:13;5.87;;;3.83;;
7013;SDS011;3547;50.774;12.918;2023-04-20T04:05:39;5.83;;;4.90;;
7013;SDS011;3547;50.774;12.918;2023-04-20T04:08:06;7.33;;;4.33;;
7013;SDS011;3547;50.774;12.918;2023-04-20T04:10:32;6.20;;;4.20;;
7013;SDS011;3547;50.774;12.918;2023-04-20T04:12:58;7.33;;;5.10;;
7013;SDS011;3547;50.774;12.918;2023-04-20T04:15:24;4.87;;;3.67;;
7013;SDS011;3547;50.774;12.918;2023-04-20T04:17:52;6.27;;;4.60;;
7013;SDS011;3547;50.774;12.918;2023-04-20T04:20:19;5.57;;;4.13;;
7013;SDS011;3547;50.774;12.918;2023-04-20T04:22:45;4.40;;;3.87;;
7013;SDS011;3547;50.774;12.918;2023-04-20T04:25:11;6.53;;;4.80;;
7013;SDS011;3547;50.774;12.918;2023-04-20T04:27:38;8.10;;;4.93;;
7013;SDS011;3547;50.774;12.918;2023-04-20T04:30:05;6.70;;;4.60;;
7013;SDS011;3547;50.774;12.918;2023-04-20T04:32:31;6.17;;;4.43;;
7013;SDS011;3547;50.774;12.918;2023-04-20T04:34:59;5.40;;;4.60;;
7013;SDS011;3547;50.774;12.918;2023-04-20T04:37:25;6.60;;;4.23;;
7013;SDS011;3547;50.774;12.918;2023-04-20T04:39:52;7.90;;;5.67;;
7013;SDS011;3547;50.774;12.918;2023-04-20T04:42:18;6.57;;;4.93;;
7013;SDS011;3547;50.774;12.918;2023-04-20T04:44:45;5.60;;;4.60;;
7013;SDS011;3547;50.774;12.918;2023-04-20T04:47:11;8.47;;;4.80;;
7013;SDS011;3547;50.774;12.918;2023-04-20T04:49:38;6.53;;;4.60;;
7013;SDS011;3547;50.774;12.918;2023-04-20T04:52:06;6.90;;;4.17;;
7013;SDS011;3547;50.774;12.918;2023-04-20T04:54:32;5.83;;;4.23;;
7013;SDS011;3547;50.774;12.918;2023-04-20T04:56:59;6.70;;;4.73;;
7013;SDS011;3547;50.774;12.918;2023-04-20T04:59:25;5.37;;;3.83;;
7013;SDS011;3547;50.774;12.918;2023-04-20T05:01:52;5.10;;;3.93;;
7013;SDS011;3547;50.774;12.918;2023-04-20T05:04:18;5.63;;;4.20;;
7013;SDS011;3547;50.774;12.918;2023-04-20T05:06:44;4.70;;;3.93;;
7013;SDS011;3547;50.774;12.918;2023-04-20T05:09:11;6.90;;;5.20;;
7013;SDS011;3547;50.774;12.918;2023-04-20T05:11:37;6.63;;;4.20;;
7013;SDS011;3547;50.774;12.918;2023-04-20T05:14:04;5.40;;;4.33;;
7013;SDS011;3547;50.774;12.918;2023-04-20T05:16:30;5.80;;;4.47;;
7013;SDS011;3547;50.774;12.918;2023-04-20T05:18:56;6.63;;;4.67;;
7013;SDS011;3547;50.774;12.918;2023-04-20T05:21:22;5.47;;;4.37;;
7013;SDS011;3547;50.774;12.918;2023-04-20T05:23:52;5.63;;;4.50;;
7013;SDS011;3547;50.774;12.918;2023-04-20T05:26:18;6.07;;;4.40;;
7013;SDS011;3547;50.774;12.918;2023-04-20T05:28:45;6.20;;;4.57;;
7013;SDS011;3547;50.774;12.918;2023-04-20T05:31:14;4.37;;;3.87;;
7013;SDS011;3547;50.774;12.918;2023-04-20T05:33:40;6.73;;;4.87;;
7013;SDS011;3547;50.774;12.918;2023-04-20T05:36:09;4.30;;;3.83;;
7013;SDS011;3547;50.774;12.918;2023-04-20T05:38:35;6.33;;;4.53;;
7013;SDS011;3547;50.774;12.918;2023-04-20T05:41:02;6.57;;;4.87;;
7013;SDS011;3547;50.774;12.918;2023-04-20T05:43:29;6.37;;;5.13;;
7013;SDS011;3547;50.774;12.918;2023-04-20T05:45:55;4.77;;;4.03;;
7013;SDS011;3547;50.774;12.918;2023-04-20T05:48:21;5.80;;;4.77;;
7013;SDS011;3547;50.774;12.918;2023-04-20T05:50:47;6.57;;;5.03;;
7013;SDS011;3547;50.774;12.918;2023-04-20T05:53:14;6.37;;;5.07;;
7013;SDS011;3547;50.774;12.918;2023-04-20T05:55:40;7.47;;;5.17;;
7013;SDS011;3547;50.774;12.918;2023-04-20T05:58:06;7.23;;;5.67;;
7013;SDS011;3547;50.774;12.918;2023-04-20T06:00:32;7.17;;;5.53;;
7013;SDS011;3547;50.774;12.918;2023-04-20T06:02:58;8.13;;;5.17;;
7013;SDS011;3547;50.774;12.918;2023-04-20T06:05:24;8.27;;;5.83;;
7013;SDS011;3547;50.774;12.918;2023-04-20T06:07:50;8.47;;;6.03;;
7013;SDS011;3547;50.774;12.918;2023-04-20T06:10:17;7.83;;;5.67;;
7013;SDS011;3547;50.774;12.918;2023-04-20T06:12:43;8.07;;;5.17;;
7013;SDS011;3547;50.774;12.918;2023-04-20T06:15:09;8.20;;;5.53;;
7013;SDS011;3547;50.774;12.918;2023-04-20T06:17:36;6.57;;;5.20;;
7013;SDS011;3547;50.774;12.918;2023-04-20T06:20:06;7.80;;;5.10;;
7013;SDS011;3547;50.774;12.918;2023-04-20T06:22:36;8.03;;;5.97;;
7013;SDS011;3547;50.774;12.918;2023-04-20T06:25:07;5.90;;;4.77;;
7013;SDS011;3547;50.774;12.918;2023-04-20T06:27:35;6.13;;;4.93;;
7013;SDS011;3547;50.774;12.918;2023-04-20T06:30:01;7.23;;;5.57;;
7013;SDS011;3547;50.774;12.918;2023-04-20T06:32:28;7.87;;;5.10;;
7013;SDS011;3547;50.774;12.918;2023-04-20T06:34:54;6.17;;;4.13;;
7013;SDS011;3547;50.774;12.918;2023-04-20T06:37:20;6.00;;;4.53;;
7013;SDS011;3547;50.774;12.918;2023-04-20T06:39:47;6.23;;;4.80;;
7013;SDS011;3547;50.774;12.918;2023-04-20T06:42:13;8.23;;;5.37;;
7013;SDS011;3547;50.774;12.918;2023-04-20T06:44:40;6.13;;;4.90;;
7013;SDS011;3547;50.774;12.918;2023-04-20T06:47:06;6.10;;;4.60;;
7013;SDS011;3547;50.774;12.918;2023-04-20T06:49:35;6.93;;;4.70;;
7013;SDS011;3547;50.774;12.918;2023-04-20T06:52:04;6.67;;;4.90;;
7013;SDS011;3547;50.774;12.918;2023-04-20T06:54:31;6.47;;;4.30;;
7013;SDS011;3547;50.774;12.918;2023-04-20T06:56:57;6.60;;;5.17;;
7013;SDS011;3547;50.774;12.918;2023-04-20T06:59:23;7.63;;;4.90;;
7013;SDS011;3547;50.774;12.918;2023-04-20T07:01:50;7.60;;;5.80;;
7013;SDS011;3547;50.774;12.918;2023-04-20T07:04:16;7.30;;;4.80;;
7013;SDS011;3547;50.774;12.918;2023-04-20T07:06:45;6.23;;;4.50;;
7013;SDS011;3547;50.774;12.918;2023-04-20T07:09:13;6.60;;;4.90;;
7013;SDS011;3547;50.774;12.918;2023-04-20T07:11:39;7.87;;;5.07;;
7013;SDS011;3547;50.774;12.918;2023-04-20T07:14:05;7.17;;;5.10;;
7013;SDS011;3547;50.774;12.918;2023-04-20T07:16:33;6.73;;;5.17;;
7013;SDS011;3547;50.774;12.918;2023-04-20T07:18:59;7.80;;;5.03;;
7013;SDS011;3547;50.774;12.918;2023-04-20T07:21:25;7.53;;;4.80;;
7013;SDS011;3547;50.774;12.918;2023-04-20T07:23:51;5.80;;;4.63;;
7013;SDS011;3547;50.774;12.918;2023-04-20T07:26:17;6.07;;;4.80;;
7013;SDS011;3547;50.774;12.918;2023-04-20T07:28:43;6.23;;;4.60;;
7013;SDS011;3547;50.774;12.918;2023-04-20T07:31:09;7.90;;;5.47;;
7013;SDS011;3547;50.774;12.918;2023-04-20T07:33:36;6.33;;;4.43;;
7013;SDS011;3547;50.774;12.918;2023-04-20T07:36:02;5.20;;;3.80;;
7013;SDS011;3547;50.774;12.918;2023-04-20T07:38:29;6.70;;;4.33;;
7013;SDS011;3547;50.774;12.918;2023-04-20T07:40:55;5.03;;;4.10;;
7013;SDS011;3547;50.774;12.918;2023-04-20T07:43:21;6.17;;;4.57;;
7013;SDS011;3547;50.774;12.918;2023-04-20T07:45:48;9.43;;;5.97;;
7013;SDS011;3547;50.774;12.918;2023-04-20T07:48:14;8.50;;;6.03;;
7013;SDS011;3547;50.774;12.918;2023-04-20T07:50:40;13.03;;;6.70;;
7013;SDS011;3547;50.774;12.918;2023-04-20T07:53:06;7.37;;;5.33;;
7013;SDS011;3547;50.774;12.918;2023-04-20T07:55:32;9.70;;;5.93;;
7013;SDS011;3547;50.774;12.918;2023-04-20T07:57:58;5.00;;;3.87;;
7013;SDS011;3547;50.774;12.918;2023-04-20T08:00:27;5.30;;;4.40;;
7013;SDS011;3547;50.774;12.918;2023-04-20T08:02:53;4.37;;;3.60;;
7013;SDS011;3547;50.774;12.918;2023-04-20T08:05:20;4.50;;;3.53;;
7013;SDS011;3547;50.774;12.918;2023-04-20T08:07:46;5.73;;;3.67;;
7013;SDS011;3547;50.774;12.918;2023-04-20T08:10:13;4.67;;;3.53;;
7013;SDS011;3547;50.774;12.918;2023-04-20T08:12:39;3.97;;;3.23;;
7013;SDS011;3547;50.774;12.918;2023-04-20T08:15:05;4.67;;;2.90;;
7013;SDS011;3547;50.774;12.918;2023-04-20T08:17:32;6.83;;;3.73;;
7013;SDS011;3547;50.774;12.918;2023-04-20T08:19:58;5.67;;;4.03;;
7013;SDS011;3547;50.774;12.918;2023-04-20T08:22:25;4.87;;;3.40;;
7013;SDS011;3547;50.774;12.918;2023-04-20T08:24:55;4.23;;;3.03;;
7013;SDS011;3547;50.774;12.918;2023-04-20T08:27:23;4.37;;;3.40;;
7013;SDS011;3547;50.774;12.918;2023-04-20T08:29:50;3.57;;;3.20;;
7013;SDS011;3547;50.774;12.918;2023-04-20T08:32:16;3.53;;;3.23;;
7013;SDS011;3547;50.774;12.918;2023-04-20T08:34:47;3.93;;;3.03;;
7013;SDS011;3547;50.774;12.918;2023-04-20T08:37:14;3.03;;;2.60;;
7013;SDS011;3547;50.774;12.918;2023-04-20T08:39:40;4.07;;;3.13;;
7013;SDS011;3547;50.774;12.918;2023-04-20T08:42:06;6.00;;;3.23;;
7013;SDS011;3547;50.774;12.918;2023-04-20T08:44:32;3.53;;;2.53;;
7013;SDS011;3547;50.774;12.918;2023-04-20T08:46:59;3.53;;;2.70;;
7013;SDS011;3547;50.774;12.918;2023-04-20T08:49:26;5.83;;;3.50;;
7013;SDS011;3547;50.774;12.918;2023-04-20T08:51:54;4.60;;;3.60;;
7013;SDS011;3547;50.774;12.918;2023-04-20T08:54:21;3.70;;;3.00;;
7013;SDS011;3547;50.774;12.918;2023-04-20T08:56:47;5.10;;;3.47;;
7013;SDS011;3547;50.774;12.918;2023-04-20T08:59:14;5.20;;;3.60;;
7013;SDS011;3547;50.774;12.918;2023-04-20T09:01:41;3.70;;;3.17;;
7013;SDS011;3547;50.774;12.918;2023-04-20T09:04:24;4.10;;;3.40;;
7013;SDS011;3547;50.774;12.918;2023-04-20T09:06:51;5.03;;;3.37;;
7013;SDS011;3547;50.774;12.918;2023-04-20T09:09:19;4.17;;;2.63;;
7013;SDS011;3547;50.774;12.918;2023-04-20T09:12:02;3.50;;;3.00;;
7013;SDS011;3547;50.774;12.918;2023-04-20T09:14:47;3.43;;;2.90;;
7013;SDS011;3547;50.774;12.918;2023-04-20T09:17:29;3.70;;;3.17;;
7013;SDS011;3547;50.774;12.918;2023-04-20T09:20:00;3.93;;;3.03;;
7013;SDS011;3547;50.774;12.918;2023-04-20T09:22:30;3.83;;;2.67;;
7013;SDS011;3547;50.774;12.918;2023-04-20T09:24:57;4.73;;;3.00;;
7013;SDS011;3547;50.774;12.918;2023-04-20T09:27:24;4.17;;;2.90;;
7013;SDS011;3547;50.774;12.918;2023-04-20T09:29:57;4.27;;;2.97;;
7013;SDS011;3547;50.774;12.918;2023-04-20T09:32:25;5.43;;;3.33;;
7013;SDS011;3547;50.774;12.918;2023-04-20T09:34:53;3.97;;;3.13;;
7013;SDS011;3547;50.774;12.918;2023-04-20T09:37:19;3.40;;;2.73;;
7013;SDS011;3547;50.774;12.918;2023-04-20T09:39:47;4.20;;;3.13;;
7013;SDS011;3547;50.774;12.918;2023-04-20T09:42:14;3.60;;;2.93;;
7013;SDS011;3547;50.774;12.918;2023-04-20T09:44:41;3.50;;;2.87;;
7013;SDS011;3547;50.774;12.918;2023-04-20T09:47:08;11.70;;;3.90;;
7013;SDS011;3547;50.774;12.918;2023-04-20T09:49:45;4.70;;;3.33;;
7013;SDS011;3547;50.774;12.918;2023-04-20T09:52:13;3.67;;;3.20;;
7013;SDS011;3547;50.774;12.918;2023-04-20T09:54:42;3.80;;;3.13;;
7013;SDS011;3547;50.774;12.918;2023-04-20T09:57:09;3.73;;;2.90;;
7013;SDS011;3547;50.774;12.918;2023-04-20T09:59:39;4.43;;;2.97;;
7013;SDS011;3547;50.774;12.918;2023-04-20T10:02:08;2.83;;;2.43;;
7013;SDS011;3547;50.774;12.918;2023-04-20T10:04:52;3.77;;;2.73;;
7013;SDS011;3547;50.774;12.918;2023-04-20T10:07:26;3.53;;;2.53;;
7013;SDS011;3547;50.774;12.918;2023-04-20T10:10:04;3.60;;;2.60;;
7013;SDS011;3547;50.774;12.918;2023-04-20T10:12:48;3.17;;;2.73;;
7013;SDS011;3547;50.774;12.918;2023-04-20T10:15:17;6.17;;;2.60;;
7013;SDS011;3547;50.774;12.918;2023-04-20T10:17:46;3.50;;;2.90;;
7013;SDS011;3547;50.774;12.918;2023-04-20T10:20:19;2.97;;;2.37;;
7013;SDS011;3547;50.774;12.918;2023-04-20T10:22:48;3.00;;;2.63;;
7013;SDS011;3547;50.774;12.918;2023-04-20T10:25:17;3.43;;;2.37;;
7013;SDS011;3547;50.774;12.918;2023-04-20T10:27:58;2.90;;;2.60;;
7013;SDS011;3547;50.774;12.918;2023-04-20T10:30:27;2.97;;;2.67;;
7013;SDS011;3547;50.774;12.918;2023-04-20T10:33:01;4.17;;;2.53;;
7013;SDS011;3547;50.774;12.918;2023-04-20T10:35:28;3.27;;;2.80;;
7013;SDS011;3547;50.774;12.918;2023-04-20T10:37:54;4.57;;;2.67;;
7013;SDS011;3547;50.774;12.918;2023-04-20T10:40:24;4.40;;;2.90;;
7013;SDS011;3547;50.774;12.918;2023-04-20T10:42:51;4.23;;;2.30;;
7013;SDS011;3547;50.774;12.918;2023-04-20T10:45:17;3.10;;;2.70;;
7013;SDS011;3547;50.774;12.918;2023-04-20T10:47:45;2.63;;;2.43;;
7013;SDS011;3547;50.774;12.918;2023-04-20T10:50:12;2.90;;;2.50;;
7013;SDS011;3547;50.774;12.918;2023-04-20T10:52:42;5.93;;;2.33;;
7013;SDS011;3547;50.774;12.918;2023-04-20T10:55:19;4.30;;;3.17;;
7013;SDS011;3547;50.774;12.918;2023-04-20T10:57:47;3.60;;;2.40;;
7013;SDS011;3547;50.774;12.918;2023-04-20T11:00:14;3.90;;;2.50;;
7013;SDS011;3547;50.774;12.918;2023-04-20T11:02:55;3.10;;;2.67;;
7013;SDS011;3547;50.774;12.918;2023-04-20T11:05:22;4.50;;;2.87;;
7013;SDS011;3547;50.774;12.918;2023-04-20T11:07:52;3.87;;;2.77;;
7013;SDS011;3547;50.774;12.918;2023-04-20T11:10:20;3.57;;;2.53;;
7013;SDS011;3547;50.774;12.918;2023-04-20T11:12:49;3.20;;;2.50;;
7013;SDS011;3547;50.774;12.918;2023-04-20T11:15:16;3.57;;;2.80;;
7013;SDS011;3547;50.774;12.918;2023-04-20T11:17:43;3.87;;;2.57;;
7013;SDS011;3547;50.774;12.918;2023-04-20T11:20:12;5.70;;;2.93;;
7013;SDS011;3547;50.774;12.918;2023-04-20T11:22:41;3.90;;;2.60;;
7013;SDS011;3547;50.774;12.918;2023-04-20T11:25:09;3.00;;;2.70;;
7013;SDS011;3547;50.774;12.918;2023-04-20T11:27:36;3.20;;;2.33;;
7013;SDS011;3547;50.774;12.918;2023-04-20T11:30:03;4.27;;;2.80;;
7013;SDS011;3547;50.774;12.918;2023-04-20T11:32:31;3.97;;;2.17;;
7013;SDS011;3547;50.774;12.918;2023-04-20T11:34:58;6.50;;;3.53;;
7013;SDS011;3547;50.774;12.918;2023-04-20T11:37:33;5.00;;;3.23;;
7013;SDS011;3547;50.774;12.918;2023-04-20T11:40:11;2.80;;;2.40;;
7013;SDS011;3547;50.774;12.918;2023-04-20T11:42:37;3.60;;;3.00;;
7013;SDS011;3547;50.774;12.918;2023-04-20T11:45:04;4.20;;;2.90;;
7013;SDS011;3547;50.774;12.918;2023-04-20T11:47:34;4.43;;;3.20;;
7013;SDS011;3547;50.774;12.918;2023-04-20T11:50:00;4.63;;;3.10;;
7013;SDS011;3547;50.774;12.918;2023-04-20T11:52:32;4.93;;;3.17;;
7013;SDS011;3547;50.774;12.918;2023-04-20T11:54:58;4.03;;;3.27;;
7013;SDS011;3547;50.774;12.918;2023-04-20T11:57:31;4.13;;;3.20;;
7013;SDS011;3547;50.774;12.918;2023-04-20T11:59:59;2.80;;;2.53;;
7013;SDS011;3547;50.774;12.918;2023-04-20T12:02:25;3.40;;;2.67;;
7013;SDS011;3547;50.774;12.918;2023-04-20T12:04:51;5.47;;;3.80;;
7013;SDS011;3547;50.774;12.918;2023-04-20T12:07:17;3.37;;;2.70;;
7013;SDS011;3547;50.774;12.918;2023-04-20T12:09:44;4.70;;;3.30;;
7013;SDS011;3547;50.774;12.918;2023-04-20T12:12:10;12.83;;;3.90;;
7013;SDS011;3547;50.774;12.918;2023-04-20T12:14:36;3.07;;;2.70;;
7013;SDS011;3547;50.774;12.918;2023-04-20T12:17:03;3.10;;;2.37;;
7013;SDS011;3547;50.774;12.918;2023-04-20T12:19:29;4.07;;;3.20;;
7013;SDS011;3547;50.774;12.918;2023-04-20T12:21:56;4.10;;;3.57;;
7013;SDS011;3547;50.774;12.918;2023-04-20T12:24:22;5.57;;;3.03;;
7013;SDS011;3547;50.774;12.918;2023-04-20T12:26:48;3.67;;;3.17;;
7013;SDS011;3547;50.774;12.918;2023-04-20T12:29:15;6.20;;;4.00;;
7013;SDS011;3547;50.774;12.918;2023-04-20T12:31:44;4.80;;;3.10;;
7013;SDS011;3547;50.774;12.918;2023-04-20T12:34:14;4.93;;;3.60;;
7013;SDS011;3547;50.774;12.918;2023-04-20T12:36:41;5.00;;;3.67;;
7013;SDS011;3547;50.774;12.918;2023-04-20T12:39:07;7.65;;;3.28;;
7013;SDS011;3547;50.774;12.918;2023-04-20T12:41:36;7.78;;;4.38;;
7013;SDS011;3547;50.774;12.918;2023-04-20T12:44:02;5.28;;;3.60;;
7013;SDS011;3547;50.774;12.918;2023-04-20T12:46:28;6.15;;;3.53;;
7013;SDS011;3547;50.774;12.918;2023-04-20T12:48:54;6.38;;;4.35;;
7013;SDS011;3547;50.774;12.918;2023-04-20T12:51:21;4.20;;;3.70;;
7013;SDS011;3547;50.774;12.918;2023-04-20T12:53:47;6.72;;;3.95;;
7013;SDS011;3547;50.774;12.918;2023-04-20T12:56:13;7.10;;;4.97;;
7013;SDS011;3547;50.774;12.918;2023-04-20T12:58:39;5.35;;;4.50;;
7013;SDS011;3547;50.774;12.918;2023-04-20T13:03:41;7.40;;;4.90;;
7013;SDS011;3547;50.774;12.918;2023-04-20T13:06:09;7.47;;;4.90;;
7013;SDS011;3547;50.774;12.918;2023-04-20T13:08:36;9.87;;;5.73;;
7013;SDS011;3547;50.774;12.918;2023-04-20T13:13:38;4.70;;;3.70;;
7013;SDS011;3547;50.774;12.918;2023-04-20T13:16:07;7.70;;;4.85;;
7013;SDS011;3547;50.774;12.918;2023-04-20T13:18:39;5.43;;;3.90;;
7013;SDS011;3547;50.774;12.918;2023-04-20T13:21:08;6.13;;;4.75;;
7013;SDS011;3547;50.774;12.918;2023-04-20T13:23:34;7.37;;;5.37;;
7013;SDS011;3547;50.774;12.918;2023-04-20T13:26:04;6.80;;;5.07;;
7013;SDS011;3547;50.774;12.918;2023-04-20T13:28:35;7.82;;;4.57;;
7013;SDS011;3547;50.774;12.918;2023-04-20T13:31:05;7.47;;;5.27;;
7013;SDS011;3547;50.774;12.918;2023-04-20T13:33:31;9.20;;;5.28;;
7013;SDS011;3547;50.774;12.918;2023-04-20T13:38:33;6.32;;;4.78;;
7013;SDS011;3547;50.774;12.918;2023-04-20T13:41:00;8.43;;;5.93;;
7013;SDS011;3547;50.774;12.918;2023-04-20T13:43:26;11.25;;;6.45;;
7013;SDS011;3547;50.774;12.918;2023-04-20T13:45:53;7.40;;;4.93;;
7013;SDS011;3547;50.774;12.918;2023-04-20T13:48:19;9.10;;;6.03;;
7013;SDS011;3547;50.774;12.918;2023-04-20T13:50:45;8.25;;;5.65;;
7013;SDS011;3547;50.774;12.918;2023-04-20T13:53:16;10.07;;;6.25;;
7013;SDS011;3547;50.774;12.918;2023-04-20T13:55:43;10.10;;;6.22;;
7013;SDS011;3547;50.774;12.918;2023-04-20T13:58:12;8.57;;;5.47;;
7013;SDS011;3547;50.774;12.918;2023-04-20T14:00:39;9.90;;;6.67;;
7013;SDS011;3547;50.774;12.918;2023-04-20T14:03:05;8.53;;;6.47;;
7013;SDS011;3547;50.774;12.918;2023-04-20T14:05:35;11.53;;;6.93;;
7013;SDS011;3547;50.774;12.918;2023-04-20T14:08:03;11.03;;;6.53;;
7013;SDS011;3547;50.774;12.918;2023-04-20T14:10:31;9.80;;;6.70;;
7013;SDS011;3547;50.774;12.918;2023-04-20T14:12:58;10.03;;;6.90;;
7013;SDS011;3547;50.774;12.918;2023-04-20T14:15:27;9.67;;;6.77;;
7013;SDS011;3547;50.774;12.918;2023-04-20T14:17:54;11.93;;;6.73;;
7013;SDS011;3547;50.774;12.918;2023-04-20T14:20:20;8.27;;;6.30;;
7013;SDS011;3547;50.774;12.918;2023-04-20T14:25:20;7.60;;;5.77;;
7013;SDS011;3547;50.774;12.918;2023-04-20T14:27:46;9.73;;;6.20;;
7013;SDS011;3547;50.774;12.918;2023-04-20T14:30:12;10.77;;;6.33;;
7013;SDS011;3547;50.774;12.918;2023-04-20T14:32:39;8.83;;;6.37;;
7013;SDS011;3547;50.774;12.918;2023-04-20T14:35:05;11.43;;;6.50;;
7013;SDS011;3547;50.774;12.918;2023-04-20T14:40:09;10.93;;;8.00;;
7013;SDS011;3547;50.774;12.918;2023-04-20T14:42:36;13.40;;;7.07;;
7013;SDS011;3547;50.774;12.918;2023-04-20T14:45:02;10.33;;;6.53;;
7013;SDS011;3547;50.774;12.918;2023-04-20T14:47:28;12.67;;;8.03;;
7013;SDS011;3547;50.774;12.918;2023-04-20T14:49:55;10.93;;;6.97;;
7013;SDS011;3547;50.774;12.918;2023-04-20T14:52:21;12.07;;;6.93;;
7013;SDS011;3547;50.774;12.918;2023-04-20T14:54:47;12.70;;;7.17;;
7013;SDS011;3547;50.774;12.918;2023-04-20T14:57:13;10.93;;;6.73;;
7013;SDS011;3547;50.774;12.918;2023-04-20T14:59:39;13.03;;;6.13;;
7013;SDS011;3547;50.774;12.918;2023-04-20T15:02:06;14.30;;;8.87;;
7013;SDS011;3547;50.774;12.918;2023-04-20T15:04:33;15.80;;;8.83;;
7013;SDS011;3547;50.774;12.918;2023-04-20T15:06:59;16.20;;;8.27;;
7013;SDS011;3547;50.774;12.918;2023-04-20T15:17:13;13.37;;;7.80;;
7013;SDS011;3547;50.774;12.918;2023-04-20T15:19:40;11.93;;;7.40;;
7013;SDS011;3547;50.774;12.918;2023-04-20T15:22:10;16.87;;;8.57;;
7013;SDS011;3547;50.774;12.918;2023-04-20T15:24:38;13.03;;;8.60;;
7013;SDS011;3547;50.774;12.918;2023-04-20T15:27:05;14.60;;;7.90;;
7013;SDS011;3547;50.774;12.918;2023-04-20T15:34:43;12.90;;;8.37;;
7013;SDS011;3547;50.774;12.918;2023-04-20T15:37:10;13.83;;;9.07;;
7013;SDS011;3547;50.774;12.918;2023-04-20T15:39:36;13.30;;;8.23;;